Time;durP1;ratioP1;P1;durP2;ratioP2;P2;SDS_P1;SDS_P2;PMS_P1;PMS_P2;Temp;Humidity;BMP_temperature;BMP_pressure;BME280_temperature;BME280_humidity;BME280_pressure;Samples;Min_cycle;Max_cycle;Signal;HPM_P1;HPM_P2
2023/03/26 00:01:48;;;;;;;3.40;1.63;;;8.40;1.00;;;;;;4991216;28;20029;-56
2023/03/26 00:04:18;;;;;;;5.53;1.63;;;8.50;1.00;;;;;;4975674;28;20015;-59
2023/03/26 00:06:47;;;;;;;6.57;1.50;;;8.50;1.00;;;;;;4991312;28;20049;-58
2023/03/26 00:09:14;;;;;;;2.75;1.70;;;8.60;99.90;;;;;;4980214;28;20539;-59
2023/03/26 00:11:42;;;;;;;2.17;1.75;;;8.60;99.90;;;;;;4990593;28;20023;-57
2023/03/26 00:14:12;;;;;;;5.55;1.55;;;8.60;99.90;;;;;;4981780;28;20023;-57
2023/03/26 00:16:40;;;;;;;2.30;1.75;;;8.60;99.90;;;;;;4985915;28;20388;-56
2023/03/26 00:19:06;;;;;;;2.58;1.88;;;8.60;99.90;;;;;;4985583;28;20018;-56
2023/03/26 00:21:32;;;;;;;2.85;1.40;;;8.70;1.00;;;;;;4987222;28;20073;-58
2023/03/26 00:24:04;;;;;;;4.20;2.03;;;8.70;1.00;;;;;;4983640;28;20600;-58
2023/03/26 00:26:34;;;;;;;1.88;1.35;;;8.70;99.90;;;;;;4988191;28;20026;-58
2023/03/26 00:29:02;;;;;;;3.22;1.70;;;8.80;1.00;;;;;;4979113;28;20640;-57
2023/03/26 00:31:27;;;;;;;5.80;2.15;;;8.80;85.90;;;;;;4988706;28;20405;-57
2023/03/26 00:33:54;;;;;;;1.30;1.20;;;8.70;1.00;;;;;;4983442;28;20034;-57
2023/03/26 00:36:24;;;;;;;4.03;1.83;;;8.70;93.00;;;;;;4985325;28;20430;-58
2023/03/26 00:38:51;;;;;;;2.70;1.50;;;8.70;47.90;;;;;;4977582;28;20095;-58
2023/03/26 00:41:25;;;;;;;3.25;1.70;;;8.70;17.70;;;;;;4978364;28;20019;-56
2023/03/26 00:43:55;;;;;;;;;;;8.70;1.00;;;;;;4984980;28;20033;-59
2023/03/26 00:46:22;;;;;;;2.33;1.58;;;8.60;25.40;;;;;;4983421;28;20454;-57
2023/03/26 00:48:49;;;;;;;2.15;1.45;;;8.60;1.00;;;;;;4977437;28;20033;-53
2023/03/26 00:51:16;;;;;;;2.33;1.88;;;8.50;43.00;;;;;;4988499;28;20144;-59
2023/03/26 00:53:44;;;;;;;3.00;1.73;;;8.50;99.90;;;;;;4981715;28;20468;-57
2023/03/26 00:56:10;;;;;;;1.73;1.40;;;8.40;99.90;;;;;;4999681;28;20113;-56
2023/03/26 00:58:37;;;;;;;4.03;2.10;;;8.40;1.00;;;;;;4975290;28;20030;-57
2023/03/26 01:01:12;;;;;;;1.50;1.40;;;8.30;99.90;;;;;;4983774;28;20027;-58
2023/03/26 01:03:40;;;;;;;3.20;1.80;;;8.30;99.90;;;;;;4988872;28;20117;-57
2023/03/26 01:06:12;;;;;;;3.92;1.73;;;8.40;99.90;;;;;;4985646;28;20030;-59
2023/03/26 01:08:53;;;;;;;4.78;1.88;;;8.50;99.90;;;;;;4988998;28;20030;-56
2023/03/26 01:11:24;;;;;;;2.63;1.83;;;8.50;9.10;;;;;;4981930;28;20110;-57
2023/03/26 01:13:56;;;;;;;2.00;1.63;;;8.50;99.90;;;;;;4974579;28;20031;-56
2023/03/26 01:16:36;;;;;;;3.60;1.50;;;8.50;13.10;;;;;;4976214;28;20081;-58
2023/03/26 01:19:09;;;;;;;3.85;1.70;;;8.50;99.90;;;;;;4974261;28;20026;-59
2023/03/26 01:21:35;;;;;;;5.38;1.83;;;8.40;99.90;;;;;;4985974;28;20708;-57
2023/03/26 01:24:00;;;;;;;6.88;1.92;;;8.30;99.90;;;;;;4981666;28;20104;-58
2023/03/26 01:27:03;;;;;;;7.38;2.67;;;8.30;99.90;;;;;;4984067;28;20022;-58
2023/03/26 01:29:47;;;;;;;3.35;1.90;;;8.20;99.90;;;;;;4978927;28;20041;-56
2023/03/26 01:32:33;;;;;;;2.13;1.70;;;8.20;1.00;;;;;;4973487;28;20141;-59
2023/03/26 01:35:25;;;;;;;6.93;1.55;;;8.10;1.00;;;;;;4988740;28;20384;-59
2023/03/26 01:38:21;;;;;;;4.22;1.58;;;8.10;1.00;;;;;;4989289;28;20003;-58
2023/03/26 01:41:03;;;;;;;2.47;1.90;;;8.00;1.00;;;;;;4987512;28;20101;-58
2023/03/26 01:43:32;;;;;;;4.70;1.70;;;7.90;1.00;;;;;;4974604;28;20019;-54
2023/03/26 01:46:02;;;;;;;3.03;1.80;;;7.90;1.00;;;;;;4973296;28;20122;-58
2023/03/26 01:48:32;;;;;;;1.80;1.50;;;7.80;1.00;;;;;;4989803;28;20033;-57
2023/03/26 01:50:58;;;;;;;6.97;2.00;;;7.80;1.00;;;;;;4981779;28;20042;-56
2023/03/26 01:53:24;;;;;;;2.22;1.65;;;7.80;51.60;;;;;;4990780;28;20061;-56
2023/03/26 01:55:58;;;;;;;6.50;1.98;;;7.80;95.60;;;;;;4992029;28;20019;-54
2023/03/26 01:58:29;;;;;;;;;;;7.80;99.80;;;;;;4982269;28;20030;-55
2023/03/26 02:01:16;;;;;;;2.17;1.67;;;7.90;99.90;;;;;;4976872;28;19936;-58
2023/03/26 02:03:54;;;;;;;5.07;2.05;;;7.90;99.90;;;;;;4987117;28;20485;-56
2023/03/26 02:06:24;;;;;;;3.47;1.75;;;7.90;99.90;;;;;;4981906;28;20034;-57
2023/03/26 02:08:56;;;;;;;4.03;2.03;;;7.90;99.90;;;;;;4972892;28;20078;-58
2023/03/26 02:11:22;;;;;;;5.65;1.92;;;8.00;99.90;;;;;;4974253;28;20019;-58
2023/03/26 02:13:48;;;;;;;2.58;1.90;;;8.00;99.90;;;;;;4983069;28;20027;-59
2023/03/26 02:16:15;;;;;;;4.07;1.90;;;8.00;99.90;;;;;;4977284;28;20446;-57
2023/03/26 02:18:42;;;;;;;2.80;1.80;;;8.10;99.90;;;;;;4992266;28;20093;-57
2023/03/26 02:21:11;;;;;;;3.25;1.58;;;8.20;99.90;;;;;;4987829;28;20023;-58
2023/03/26 02:23:39;;;;;;;4.70;2.00;;;8.30;99.90;;;;;;4976998;28;20042;-58
2023/03/26 02:26:08;;;;;;;3.35;1.77;;;8.30;99.90;;;;;;4979300;28;20031;-57
2023/03/26 02:28:49;;;;;;;5.35;1.92;;;8.30;99.90;;;;;;4990605;28;20500;-57
2023/03/26 02:31:18;;;;;;;8.20;2.28;;;8.30;99.90;;;;;;4972798;28;20034;-59
2023/03/26 02:33:46;;;;;;;6.82;2.00;;;8.30;89.10;;;;;;4982083;28;20038;-57
2023/03/26 02:36:12;;;;;;;6.00;1.70;;;8.30;99.90;;;;;;4982082;28;20019;-59
2023/03/26 02:38:39;;;;;;;8.10;2.67;;;8.30;99.90;;;;;;4976584;28;20614;-58
2023/03/26 02:41:04;;;;;;;3.13;1.70;;;8.30;99.90;;;;;;4985147;28;20026;-55
2023/03/26 02:43:30;;;;;;;6.55;2.22;;;8.20;49.30;;;;;;4984068;28;20023;-58
2023/03/26 02:45:56;;;;;;;4.18;1.90;;;8.10;99.90;;;;;;4984361;28;20027;-59
2023/03/26 02:48:22;;;;;;;5.85;2.08;;;8.00;99.90;;;;;;4986854;28;20451;-59
2023/03/26 02:50:49;;;;;;;6.85;2.15;;;8.00;99.90;;;;;;4977894;28;20026;-59
2023/03/26 02:53:17;;;;;;;5.65;1.85;;;8.00;99.90;;;;;;4986406;28;20117;-59
2023/03/26 02:55:43;;;;;;;5.85;1.85;;;8.00;99.90;;;;;;4981982;28;20059;-58
2023/03/26 02:58:11;;;;;;;5.20;2.65;;;7.90;99.90;;;;;;4987904;28;20570;-58
2023/03/26 03:00:37;;;;;;;6.57;2.13;;;7.90;99.90;;;;;;4982343;28;20105;-58
2023/03/26 03:03:03;;;;;;;3.25;1.88;;;7.80;99.90;;;;;;4979517;28;20113;-56
2023/03/26 03:05:30;;;;;;;9.82;2.53;;;7.80;99.90;;;;;;4982738;28;20103;-59
2023/03/26 03:07:59;;;;;;;4.47;2.20;;;7.70;99.90;;;;;;4985818;28;20034;-55
2023/03/26 03:10:26;;;;;;;4.97;2.00;;;7.80;99.90;;;;;;4983764;28;20351;-58
2023/03/26 03:12:58;;;;;;;5.65;1.70;;;7.90;99.90;;;;;;4979266;28;20109;-57
2023/03/26 03:15:24;;;;;;;4.00;2.25;;;7.80;99.90;;;;;;4986895;28;20031;-56
2023/03/26 03:17:50;;;;;;;4.97;3.08;;;7.80;99.90;;;;;;4977822;28;20022;-56
2023/03/26 03:20:16;;;;;;;3.33;1.83;;;7.80;99.90;;;;;;4994330;28;20034;-57
2023/03/26 03:22:42;;;;;;;5.22;2.00;;;7.70;99.90;;;;;;4979694;28;20023;-58
2023/03/26 03:25:13;;;;;;;9.95;2.55;;;7.70;99.90;;;;;;4980691;28;20033;-57
2023/03/26 03:27:42;;;;;;;7.28;2.00;;;7.70;99.90;;;;;;4979118;28;20066;-54
2023/03/26 03:30:09;;;;;;;47.53;16.05;;;7.70;99.90;;;;;;4984479;28;20031;-56
2023/03/26 03:32:35;;;;;;;14.52;7.07;;;7.70;99.90;;;;;;4983970;28;20444;-55
2023/03/26 03:35:01;;;;;;;17.50;7.90;;;7.70;99.90;;;;;;4991314;28;21479;-55
2023/03/26 03:37:26;;;;;;;11.55;3.70;;;7.60;99.90;;;;;;4981027;28;20493;-57
2023/03/26 03:39:52;;;;;;;6.88;2.33;;;7.60;99.90;;;;;;4981969;28;20066;-59
2023/03/26 03:42:18;;;;;;;6.28;2.42;;;7.60;99.90;;;;;;4983408;28;20040;-57
2023/03/26 03:44:44;;;;;;;6.70;2.78;;;7.60;99.90;;;;;;4994177;28;20596;-55
2023/03/26 03:47:12;;;;;;;2.65;1.95;;;7.50;99.90;;;;;;4975943;28;20030;-58
2023/03/26 03:49:41;;;;;;;4.70;2.08;;;7.50;99.90;;;;;;4982115;28;20026;-59
2023/03/26 03:52:06;;;;;;;4.75;2.17;;;7.50;99.90;;;;;;4984532;28;20039;-58
2023/03/26 03:54:32;;;;;;;7.22;1.98;;;7.40;99.90;;;;;;4994421;28;20023;-57
2023/03/26 03:56:58;;;;;;;4.15;2.20;;;7.40;99.90;;;;;;4984159;28;20478;-57
2023/03/26 03:59:24;;;;;;;6.90;2.15;;;7.30;99.90;;;;;;4979538;28;20393;-53
2023/03/26 04:01:49;;;;;;;5.80;2.40;;;7.20;99.90;;;;;;4990971;28;20057;-58
2023/03/26 04:04:16;;;;;;;4.38;1.92;;;7.20;1.00;;;;;;4982951;28;20081;-58
2023/03/26 04:06:42;;;;;;;4.03;2.15;;;7.20;1.00;;;;;;4985070;28;20080;-56
2023/03/26 04:09:09;;;;;;;13.15;2.78;;;7.20;1.00;;;;;;4985361;28;20034;-57
2023/03/26 04:11:35;;;;;;;16.05;3.13;;;7.20;1.00;;;;;;4982885;28;20107;-57
2023/03/26 04:14:01;;;;;;;4.13;2.28;;;7.20;1.00;;;;;;4979797;28;20421;-57
2023/03/26 04:16:26;;;;;;;3.17;2.00;;;7.20;1.00;;;;;;4988048;28;20019;-58
2023/03/26 04:18:52;;;;;;;5.28;2.08;;;7.20;1.00;;;;;;4991094;28;20029;-55
2023/03/26 04:21:18;;;;;;;4.97;2.50;;;7.30;1.00;;;;;;4985692;28;20026;-59
2023/03/26 04:23:44;;;;;;;8.65;2.47;;;7.20;1.00;;;;;;4976664;28;20034;-59
2023/03/26 04:26:15;;;;;;;7.55;2.42;;;7.20;1.00;;;;;;4991274;28;20638;-55
2023/03/26 04:28:49;;;;;;;8.60;2.47;;;7.20;1.00;;;;;;4976667;28;20063;-59
2023/03/26 04:31:27;;;;;;;6.10;2.17;;;7.10;1.00;;;;;;4985969;28;20030;-58
2023/03/26 04:33:55;;;;;;;9.27;2.40;;;7.10;1.00;;;;;;4983436;28;20094;-58
2023/03/26 04:36:32;;;;;;;13.25;3.90;;;7.10;1.00;;;;;;4981465;28;20018;-55
2023/03/26 04:39:01;;;;;;;4.68;2.10;;;7.10;1.00;;;;;;4980684;28;20023;-55
2023/03/26 04:41:28;;;;;;;10.00;4.03;;;7.10;1.00;;;;;;4977160;28;20497;-58
2023/03/26 04:43:54;;;;;;;5.90;2.00;;;7.10;1.00;;;;;;4982949;28;20038;-52
2023/03/26 04:46:22;;;;;;;7.95;2.58;;;7.10;1.00;;;;;;4988199;28;20105;-58
2023/03/26 04:48:53;;;;;;;7.38;2.67;;;7.00;1.00;;;;;;4982941;28;20026;-53
2023/03/26 04:51:22;;;;;;;6.80;2.30;;;7.00;1.00;;;;;;4986765;28;20030;-57
2023/03/26 04:53:59;;;;;;;10.52;2.83;;;6.90;1.00;;;;;;4975324;28;20034;-58
2023/03/26 04:56:43;;;;;;;2.90;2.17;;;6.90;1.00;;;;;;4980602;28;20444;-56
2023/03/26 04:59:35;;;;;;;5.38;2.35;;;6.70;1.00;;;;;;4985804;28;20019;-52
2023/03/26 05:02:03;;;;;;;6.90;1.98;;;6.70;1.00;;;;;;4983118;28;21240;-58
2023/03/26 05:04:29;;;;;;;8.32;2.17;;;6.60;1.00;;;;;;4977910;28;20023;-55
2023/03/26 05:06:57;;;;;;;8.07;2.33;;;6.60;1.00;;;;;;4983419;28;20023;-58
2023/03/26 05:09:24;;;;;;;4.80;2.25;;;6.50;1.00;;;;;;4977411;28;20405;-56
2023/03/26 05:11:50;;;;;;;4.75;2.35;;;6.40;1.00;;;;;;4990122;28;20014;-57
2023/03/26 05:14:16;;;;;;;2.80;2.08;;;6.40;1.00;;;;;;4980890;28;20352;-59
2023/03/26 05:16:43;;;;;;;3.95;1.90;;;6.50;1.00;;;;;;4981814;28;20105;-57
2023/03/26 05:19:09;;;;;;;2.85;1.98;;;6.40;1.00;;;;;;4988585;28;20027;-57
2023/03/26 05:21:35;;;;;;;9.55;2.33;;;6.40;1.00;;;;;;4981172;28;20023;-55
2023/03/26 05:24:01;;;;;;;10.50;2.50;;;6.40;1.00;;;;;;4985603;28;20100;-58
2023/03/26 05:26:28;;;;;;;7.50;2.38;;;6.40;1.00;;;;;;4987279;28;20027;-57
2023/03/26 05:28:55;;;;;;;7.07;2.50;;;6.30;1.00;;;;;;4991432;28;20118;-57
2023/03/26 05:31:21;;;;;;;8.43;4.13;;;6.30;1.00;;;;;;4985748;28;20022;-56
2023/03/26 05:33:47;;;;;;;7.28;3.40;;;6.30;1.00;;;;;;4983954;28;20034;-58
2023/03/26 05:36:14;;;;;;;7.15;3.17;;;6.20;2.50;;;;;;4977315;28;20027;-58
2023/03/26 05:38:41;;;;;;;6.25;3.38;;;6.20;8.00;;;;;;4983044;28;20019;-59
2023/03/26 05:41:08;;;;;;;6.07;2.45;;;6.10;8.60;;;;;;4976755;28;20037;-56
2023/03/26 05:43:34;;;;;;;17.33;3.05;;;6.10;11.80;;;;;;4977883;28;20041;-58
2023/03/26 05:46:01;;;;;;;11.82;3.38;;;6.10;11.20;;;;;;4978429;28;20088;-59
2023/03/26 05:48:27;;;;;;;7.50;2.60;;;6.20;19.10;;;;;;4982278;28;20035;-56
2023/03/26 05:50:55;;;;;;;9.45;4.45;;;6.30;23.90;;;;;;4988728;28;20026;-56
2023/03/26 05:53:22;;;;;;;6.38;2.90;;;6.40;20.70;;;;;;4979357;28;20027;-59
2023/03/26 05:55:49;;;;;;;6.70;2.72;;;6.50;13.60;;;;;;4981787;28;20092;-54
2023/03/26 05:58:15;;;;;;;8.50;2.80;;;6.70;6.70;;;;;;4979411;28;20026;-59
2023/03/26 06:00:41;;;;;;;11.13;4.25;;;6.80;1.00;;;;;;4978567;28;20030;-59
2023/03/26 06:03:11;;;;;;;4.95;2.65;;;6.90;2.10;;;;;;4976365;28;20030;-57
2023/03/26 06:05:38;;;;;;;6.05;2.20;;;6.90;3.30;;;;;;4991927;28;20014;-58
2023/03/26 06:08:04;;;;;;;4.70;2.10;;;7.00;1.00;;;;;;4982595;28;20031;-58
2023/03/26 06:10:30;;;;;;;9.38;2.60;;;7.10;1.00;;;;;;4981672;28;20462;-58
2023/03/26 06:12:56;;;;;;;5.32;2.03;;;7.20;1.00;;;;;;4987566;28;20161;-56
2023/03/26 06:15:21;;;;;;;3.60;2.20;;;7.40;1.00;;;;;;4980329;28;20105;-57
2023/03/26 06:17:47;;;;;;;5.00;2.60;;;7.60;1.00;;;;;;4978238;28;20042;-59
2023/03/26 06:20:14;;;;;;;4.45;2.22;;;7.70;1.00;;;;;;4988006;28;20038;-57
2023/03/26 06:22:40;;;;;;;3.45;1.90;;;7.70;1.00;;;;;;4980743;28;20033;-57
2023/03/26 06:25:06;;;;;;;3.63;2.10;;;7.90;1.00;;;;;;4985266;28;20470;-58
2023/03/26 06:27:31;;;;;;;3.05;2.22;;;8.10;1.00;;;;;;4985264;28;20049;-58
2023/03/26 06:29:57;;;;;;;3.45;1.77;;;8.20;1.00;;;;;;4988520;28;20035;-59
2023/03/26 06:32:23;;;;;;;3.30;2.08;;;8.40;1.00;;;;;;4984959;28;20035;-58
2023/03/26 06:34:48;;;;;;;2.97;1.92;;;8.50;1.00;;;;;;4982069;28;20031;-54
2023/03/26 06:37:15;;;;;;;2.58;2.00;;;8.60;1.00;;;;;;4981295;28;20033;-57
2023/03/26 06:39:41;;;;;;;6.20;2.03;;;8.70;1.00;;;;;;4979034;28;20031;-59
2023/03/26 06:42:06;;;;;;;7.03;3.35;;;8.80;1.00;;;;;;4986689;28;20057;-58
2023/03/26 06:44:33;;;;;;;2.22;1.55;;;8.90;1.00;;;;;;4992038;28;20049;-57
2023/03/26 06:46:58;;;;;;;6.97;1.75;;;9.10;1.00;;;;;;4987294;28;20023;-58
2023/03/26 06:49:24;;;;;;;3.30;1.75;;;9.10;99.90;;;;;;4993320;28;20347;-57
2023/03/26 06:51:49;;;;;;;5.00;1.95;;;9.20;99.90;;;;;;4981057;28;20546;-58
2023/03/26 06:54:16;;;;;;;3.97;1.75;;;9.20;99.90;;;;;;4981589;28;20019;-59
2023/03/26 06:56:42;;;;;;;8.02;1.83;;;9.20;1.00;;;;;;4977807;28;20022;-59
2023/03/26 06:59:07;;;;;;;7.72;2.38;;;9.30;99.90;;;;;;4988715;28;20034;-56
2023/03/26 07:01:33;;;;;;;8.15;2.05;;;9.30;99.90;;;;;;4982993;28;20115;-59
2023/03/26 07:03:59;;;;;;;2.42;1.73;;;9.30;99.90;;;;;;4983485;28;20066;-56
2023/03/26 07:06:25;;;;;;;3.03;1.80;;;9.20;99.90;;;;;;4985018;28;20042;-56
2023/03/26 07:08:51;;;;;;;3.65;1.95;;;9.30;99.90;;;;;;4981455;28;20042;-56
2023/03/26 07:11:18;;;;;;;6.80;2.40;;;9.30;99.90;;;;;;4987623;28;20049;-54
2023/03/26 07:13:46;;;;;;;7.68;2.25;;;9.30;99.90;;;;;;4984268;28;20030;-58
2023/03/26 07:16:12;;;;;;;8.60;2.42;;;9.30;99.90;;;;;;4986978;28;20029;-59
2023/03/26 07:18:38;;;;;;;7.70;2.75;;;9.40;99.90;;;;;;4987244;28;20022;-58
2023/03/26 07:21:04;;;;;;;5.88;2.30;;;9.50;99.90;;;;;;4994862;28;20037;-58
2023/03/26 07:23:30;;;;;;;2.33;2.00;;;9.40;99.90;;;;;;4982655;28;20038;-59
2023/03/26 07:25:56;;;;;;;3.20;1.98;;;9.40;99.90;;;;;;4990117;28;20027;-57
2023/03/26 07:28:46;;;;;;;5.82;2.28;;;9.40;99.90;;;;;;4981724;28;20666;-55
2023/03/26 07:31:49;;;;;;;6.22;2.13;;;9.30;99.90;;;;;;4991268;28;20021;-58
2023/03/26 07:34:40;;;;;;;3.63;1.65;;;9.50;99.90;;;;;;4977930;28;20058;-60
2023/03/26 07:37:20;;;;;;;4.13;1.80;;;9.80;1.00;;;;;;4993891;28;20355;-59
2023/03/26 07:40:03;;;;;;;4.95;2.13;;;10.00;1.00;;;;;;4994146;28;20033;-57
2023/03/26 07:43:02;;;;;;;3.35;1.50;;;10.10;99.90;;;;;;4974265;28;20049;-58
2023/03/26 07:45:40;;;;;;;3.33;2.15;;;10.20;99.90;;;;;;4988648;28;20084;-57
2023/03/26 07:48:26;;;;;;;6.10;2.13;;;10.30;99.90;;;;;;4994624;28;20033;-54
2023/03/26 07:50:53;;;;;;;2.63;1.63;;;10.10;99.90;;;;;;4994708;28;20034;-56
2023/03/26 07:53:19;;;;;;;5.15;1.83;;;10.20;99.90;;;;;;4994751;28;20121;-55
2023/03/26 07:56:14;;;;;;;5.25;2.13;;;10.20;99.90;;;;;;4994578;28;20374;-58
2023/03/26 07:59:01;;;;;;;7.57;2.80;;;10.30;99.90;;;;;;4992352;28;20031;-57
2023/03/26 08:01:55;;;;;;;3.67;1.80;;;10.20;72.90;;;;;;4993769;28;20030;-59
2023/03/26 08:04:41;;;;;;;6.80;2.15;;;10.60;69.20;;;;;;4979217;28;20023;-55
2023/03/26 08:07:06;;;;;;;3.35;1.90;;;10.70;99.90;;;;;;4994464;28;20033;-58
2023/03/26 08:09:55;;;;;;;6.72;3.15;;;10.80;99.90;;;;;;4989243;28;20026;-59
2023/03/26 08:12:33;;;;;;;5.40;3.00;;;11.00;99.90;;;;;;4978190;28;20130;-55
2023/03/26 08:15:24;;;;;;;4.15;2.00;;;11.10;99.90;;;;;;4983308;28;20565;-58
2023/03/26 08:18:09;;;;;;;4.90;2.47;;;11.00;99.90;;;;;;4984632;28;20490;-57
2023/03/26 08:20:44;;;;;;;4.35;2.08;;;10.90;99.90;;;;;;4979988;28;20034;-57
2023/03/26 08:23:22;;;;;;;3.70;1.85;;;11.00;1.00;;;;;;4990651;28;20062;-58
2023/03/26 08:25:58;;;;;;;4.22;1.73;;;11.10;99.90;;;;;;4989394;28;20041;-59
2023/03/26 08:28:47;;;;;;;6.40;2.53;;;11.00;99.90;;;;;;4992741;28;20057;-59
2023/03/26 08:31:14;;;;;;;6.10;1.80;;;11.40;99.90;;;;;;4980000;28;20026;-59
2023/03/26 08:33:40;;;;;;;5.25;2.33;;;11.30;1.00;;;;;;4983217;28;20162;-54
2023/03/26 08:36:07;;;;;;;7.50;2.08;;;11.00;99.90;;;;;;4992054;28;20105;-56
2023/03/26 08:38:33;;;;;;;4.50;1.70;;;11.10;1.00;;;;;;4974398;28;20066;-58
2023/03/26 08:41:04;;;;;;;3.83;1.77;;;11.00;99.90;;;;;;4989638;28;20034;-55
2023/03/26 08:43:49;;;;;;;4.10;1.75;;;11.20;97.50;;;;;;4990106;28;20022;-58
2023/03/26 08:46:35;;;;;;;5.53;2.70;;;11.40;1.00;;;;;;4991457;28;20042;-57
2023/03/26 08:49:39;;;;;;;4.93;1.55;;;11.60;99.90;;;;;;4985547;28;20034;-56
2023/03/26 08:52:29;;;;;;;3.75;1.65;;;11.70;99.90;;;;;;4987164;28;20046;-58
2023/03/26 08:55:31;;;;;;;2.88;1.50;;;11.80;99.90;;;;;;4992995;28;20033;-58
2023/03/26 08:58:23;;;;;;;8.90;2.00;;;11.90;99.90;;;;;;4992902;28;20019;-56
2023/03/26 09:01:26;;;;;;;4.75;2.53;;;12.00;92.90;;;;;;4992590;28;20050;-58
2023/03/26 09:03:57;;;;;;;4.82;2.55;;;11.70;90.20;;;;;;4992669;28;20022;-58
2023/03/26 09:06:41;;;;;;;4.47;1.92;;;11.70;1.00;;;;;;4992510;28;20038;-59
2023/03/26 09:09:31;;;;;;;10.38;2.17;;;12.10;13.50;;;;;;4991250;28;20381;-59
2023/03/26 09:12:29;;;;;;;7.93;3.10;;;12.00;1.00;;;;;;4988693;28;20040;-59
2023/03/26 09:15:34;;;;;;;3.40;1.67;;;12.10;99.90;;;;;;4980397;28;20043;-58
2023/03/26 09:18:18;;;;;;;;;;;12.10;99.90;;;;;;4989025;28;20026;-59
2023/03/26 09:20:49;;;;;;;12.77;6.35;;;12.30;1.00;;;;;;4986033;28;20373;-58
2023/03/26 09:23:53;;;;;;;4.90;1.45;;;12.40;1.00;;;;;;4992988;28;20375;-59
2023/03/26 09:26:24;;;;;;;2.20;1.40;;;12.80;99.90;;;;;;4992899;28;20030;-59
2023/03/26 09:29:09;;;;;;;4.00;1.65;;;12.70;1.00;;;;;;4992800;28;20089;-58
2023/03/26 09:31:59;;;;;;;6.22;1.50;;;12.90;1.00;;;;;;4992561;28;20035;-59
2023/03/26 09:34:29;;;;;;;4.13;1.50;;;13.00;99.90;;;;;;4992899;28;20040;-58
2023/03/26 09:37:04;;;;;;;7.70;3.08;;;13.00;1.00;;;;;;4992565;28;20112;-58
2023/03/26 09:39:41;;;;;;;4.50;1.67;;;12.70;99.90;;;;;;4992940;28;20030;-55
2023/03/26 09:42:15;;;;;;;8.23;1.92;;;12.80;1.00;;;;;;4992437;28;20034;-57
2023/03/26 09:45:18;;;;;;;6.72;2.28;;;12.70;1.00;;;;;;4992793;28;20100;-58
2023/03/26 09:48:04;;;;;;;6.05;2.05;;;12.90;99.90;;;;;;4992308;28;20362;-58
2023/03/26 09:50:36;;;;;;;4.22;2.25;;;12.70;99.90;;;;;;4992539;28;20109;-60
2023/03/26 09:53:20;;;;;;;7.15;2.03;;;12.60;99.90;;;;;;4991770;28;20030;-59
2023/03/26 09:55:57;;;;;;;7.78;4.50;;;12.60;1.00;;;;;;4991755;28;20018;-58
2023/03/26 09:58:40;;;;;;;5.00;2.00;;;12.80;99.80;;;;;;4991234;28;20037;-59
2023/03/26 10:01:09;;;;;;;7.07;2.60;;;12.80;1.00;;;;;;4992356;28;20050;-60
2023/03/26 10:03:50;;;;;;;4.22;1.67;;;12.90;1.00;;;;;;4992384;28;20071;-59
2023/03/26 10:06:36;;;;;;;3.60;1.73;;;13.00;1.00;;;;;;4991881;28;20126;-59
2023/03/26 10:09:26;;;;;;;6.70;1.83;;;13.30;1.00;;;;;;4991730;28;20093;-59
2023/03/26 10:12:26;;;;;;;3.55;2.00;;;13.40;99.90;;;;;;4991340;28;20029;-57
2023/03/26 10:15:10;;;;;;;9.70;2.15;;;13.50;99.90;;;;;;4991461;28;20022;-57
2023/03/26 10:18:07;;;;;;;2.25;1.45;;;13.60;99.90;;;;;;4991001;28;20026;-59
2023/03/26 10:20:47;;;;;;;3.25;1.20;;;13.50;1.00;;;;;;4992155;28;20524;-59
2023/03/26 10:23:34;;;;;;;8.55;1.92;;;13.40;1.00;;;;;;4991949;28;20034;-60
2023/03/26 10:26:00;;;;;;;2.25;1.48;;;13.20;99.90;;;;;;4991937;28;20068;-60
2023/03/26 10:28:35;;;;;;;2.65;1.60;;;13.20;99.90;;;;;;4992012;28;20050;-59
2023/03/26 10:31:36;;;;;;;6.68;4.15;;;13.20;99.90;;;;;;4992060;28;20505;-59
2023/03/26 10:34:17;;;;;;;3.45;1.55;;;13.10;99.90;;;;;;4979932;28;20505;-59
2023/03/26 10:37:21;;;;;;;15.88;8.60;;;13.10;99.90;;;;;;4967001;28;20078;-59
2023/03/26 10:40:09;;;;;;;10.00;2.55;;;13.00;99.90;;;;;;4972977;28;20055;-59
2023/03/26 10:42:42;;;;;;;4.70;2.28;;;13.00;1.00;;;;;;4980717;28;20038;-59
2023/03/26 10:45:20;;;;;;;8.07;1.98;;;13.30;1.00;;;;;;4963502;28;20041;-59
2023/03/26 10:48:34;;;;;;;3.67;1.55;;;13.30;99.90;;;;;;4964105;28;20038;-58
2023/03/26 10:51:24;;;;;;;7.82;2.10;;;13.50;1.00;;;;;;4961280;28;20051;-59
2023/03/26 10:54:16;;;;;;;7.18;1.90;;;13.70;1.00;;;;;;4980069;28;20065;-59
2023/03/26 10:56:48;;;;;;;3.17;1.77;;;14.10;1.00;;;;;;4975342;28;20073;-59
2023/03/26 10:59:16;;;;;;;11.75;6.18;;;14.70;99.90;;;;;;4977929;28;20074;-59
2023/03/26 11:02:08;;;;;;;6.82;2.20;;;14.70;99.90;;;;;;4981119;28;20023;-59
2023/03/26 11:04:48;;;;;;;4.78;2.47;;;15.30;99.90;;;;;;4981138;28;20018;-59
2023/03/26 11:07:27;;;;;;;6.43;1.60;;;15.40;99.90;;;;;;4977214;28;20146;-59
2023/03/26 11:09:55;;;;;;;7.78;2.20;;;14.90;99.90;;;;;;4980747;28;20031;-58
2023/03/26 11:12:33;;;;;;;6.53;3.17;;;14.10;99.90;;;;;;4967334;28;20035;-58
2023/03/26 11:15:12;;;;;;;5.35;1.85;;;13.80;99.90;;;;;;4965484;28;20019;-56
2023/03/26 11:17:58;;;;;;;5.60;1.83;;;13.50;99.90;;;;;;4972275;28;20019;-56
2023/03/26 11:20:51;;;;;;;4.30;2.25;;;13.30;99.90;;;;;;4973076;28;20463;-59
2023/03/26 11:23:32;;;;;;;6.15;2.53;;;12.90;99.90;;;;;;4963453;28;20062;-57
2023/03/26 11:25:58;;;;;;;7.50;2.15;;;12.80;1.00;;;;;;4980258;28;20433;-59
2023/03/26 11:28:37;;;;;;;8.07;2.38;;;12.90;1.00;;;;;;4977975;28;20047;-57
2023/03/26 11:31:36;;;;;;;3.75;2.60;;;12.90;1.60;;;;;;4963198;28;20027;-59
2023/03/26 11:34:15;;;;;;;6.18;2.78;;;12.70;1.00;;;;;;4975622;28;20517;-58
2023/03/26 11:36:50;;;;;;;3.25;1.83;;;12.40;1.00;;;;;;4983256;28;20424;-58
2023/03/26 11:39:24;;;;;;;5.47;2.05;;;12.60;99.90;;;;;;4975629;28;20029;-58
2023/03/26 11:41:56;;;;;;;4.60;2.05;;;12.40;99.90;;;;;;4988939;28;20014;-58
2023/03/26 11:44:31;;;;;;;7.97;1.90;;;12.70;99.90;;;;;;4994977;28;20022;-59
2023/03/26 11:47:03;;;;;;;5.43;1.80;;;12.80;99.90;;;;;;4985405;28;20022;-59
2023/03/26 11:49:29;;;;;;;4.60;1.58;;;12.80;99.90;;;;;;4993525;28;20373;-58
2023/03/26 11:51:55;;;;;;;5.22;2.10;;;12.80;1.00;;;;;;4994575;28;20034;-59
2023/03/26 11:54:21;;;;;;;10.15;3.65;;;12.60;1.00;;;;;;4994618;28;20034;-59
2023/03/26 11:56:52;;;;;;;6.50;3.22;;;12.60;1.00;;;;;;4994605;28;20041;-58
2023/03/26 11:59:51;;;;;;;9.25;3.72;;;12.70;1.00;;;;;;4994656;28;20030;-59
2023/03/26 12:02:31;;;;;;;4.20;1.55;;;12.60;1.00;;;;;;4994714;28;20076;-58
2023/03/26 12:05:21;;;;;;;4.25;1.60;;;12.70;1.00;;;;;;4994628;28;20022;-59
2023/03/26 12:07:54;;;;;;;2.53;1.60;;;12.70;1.00;;;;;;4991079;28;20117;-59
2023/03/26 12:10:36;;;;;;;4.15;1.98;;;12.70;1.00;;;;;;4994598;28;20054;-57
2023/03/26 12:13:21;;;;;;;6.47;2.53;;;12.70;1.00;;;;;;4994423;28;20030;-59
2023/03/26 12:15:48;;;;;;;4.55;1.60;;;12.80;1.00;;;;;;4994453;28;20113;-58
2023/03/26 12:18:23;;;;;;;2.20;1.80;;;12.60;1.00;;;;;;4994332;28;20457;-59
2023/03/26 12:21:06;;;;;;;5.03;1.80;;;12.60;73.90;;;;;;4994302;28;20030;-57
2023/03/26 12:23:36;;;;;;;5.93;2.05;;;12.70;99.90;;;;;;4994411;28;20034;-58
2023/03/26 12:26:19;;;;;;;7.28;2.10;;;12.50;99.90;;;;;;4994187;28;20117;-58
2023/03/26 12:28:50;;;;;;;2.85;1.77;;;12.40;99.90;;;;;;4993971;28;20155;-58
2023/03/26 12:31:17;;;;;;;5.93;1.92;;;12.20;99.90;;;;;;4993912;28;20027;-59
2023/03/26 12:33:49;;;;;;;2.33;1.67;;;12.20;1.00;;;;;;4993693;28;20401;-55
2023/03/26 12:36:26;;;;;;;7.15;2.65;;;11.80;99.90;;;;;;4994009;28;20022;-59
2023/03/26 12:38:52;;;;;;;3.85;2.28;;;11.50;1.00;;;;;;4993837;28;20029;-55
2023/03/26 12:41:20;;;;;;;4.80;2.20;;;11.40;1.00;;;;;;4994061;28;20101;-57
2023/03/26 12:43:50;;;;;;;4.93;2.17;;;11.30;1.00;;;;;;4992424;28;20026;-57
2023/03/26 12:46:28;;;;;;;8.88;2.80;;;11.40;99.90;;;;;;4993608;28;20057;-55
2023/03/26 12:48:57;;;;;;;9.18;2.80;;;11.30;99.90;;;;;;4992272;28;20516;-58
2023/03/26 12:51:51;;;;;;;5.15;2.05;;;11.30;99.90;;;;;;4993626;28;20540;-59
2023/03/26 12:54:25;;;;;;;6.75;2.58;;;11.40;99.90;;;;;;4975009;28;20045;-58
2023/03/26 12:57:04;;;;;;;2.88;1.80;;;11.30;99.90;;;;;;4993659;28;20105;-57
2023/03/26 12:59:30;;;;;;;6.80;2.40;;;11.40;99.90;;;;;;4993576;28;20540;-58
2023/03/26 13:02:15;;;;;;;3.42;1.70;;;11.50;1.00;;;;;;4986413;28;20034;-58
2023/03/26 13:04:47;;;;;;;3.35;1.88;;;11.40;99.90;;;;;;4963466;28;20414;-59
2023/03/26 13:07:34;;;;;;;5.43;1.83;;;11.60;99.90;;;;;;4962485;28;20066;-58
2023/03/26 13:10:19;;;;;;;2.83;1.70;;;11.40;86.10;;;;;;4969886;28;20810;-58
2023/03/26 13:12:52;;;;;;;7.60;2.35;;;11.60;27.90;;;;;;4963243;28;20393;-58
2023/03/26 13:15:35;;;;;;;5.10;1.60;;;11.50;1.00;;;;;;4965688;28;20086;-57
2023/03/26 13:18:20;;;;;;;8.48;1.92;;;11.80;99.90;;;;;;4962748;28;22729;-59
2023/03/26 13:21:17;;;;;;;2.88;1.52;;;12.10;99.90;;;;;;4982231;28;20026;-57
2023/03/26 13:23:50;;;;;;;1.77;1.50;;;12.00;1.00;;;;;;4981925;28;20113;-58
2023/03/26 13:26:21;;;;;;;2.47;1.52;;;11.90;1.00;;;;;;4969943;28;20037;-57
2023/03/26 13:29:09;;;;;;;1.85;1.52;;;11.90;99.90;;;;;;4978320;28;20126;-58
2023/03/26 13:31:38;;;;;;;1.65;1.45;;;12.10;99.90;;;;;;4963195;28;20101;-57
2023/03/26 13:34:15;;;;;;;2.85;1.58;;;12.50;1.00;;;;;;4963067;28;20070;-56